Terminal Aerodrome Forecast
Issued by NWS

Home | Current Version | Previous Version | Text Only | Print | Product List | Glossary On
Versions: 1 2 3 4 5 6 7 8 9 10 11 12 13 14 15 16 17 18 19 20 21 22 23 24 25 26 27 28 29 30 31 32
052
FTUS44 KFWD 281138
TAFFTW
TAF
KFTW 281138Z 2812/2912 15008KT 6SM BR OVC003
      TEMPO 2812/2815 3SM BR
     FM281500 17008KT P6SM OVC006
     FM281600 18007KT P6SM BKN010
     FM281700 19011KT P6SM SCT015
     FM290500 15008KT P6SM VCSH OVC018=

USA.gov is the U.S. government's official web portal to all federal, state and local government web resources and services.